createdAt,value
2022-08-26T09:00:30.075Z,1007.37
2022-08-26T09:01:27.469Z,1007.34
2022-08-26T09:02:27.548Z,1007.38
2022-08-26T09:03:27.428Z,1007.38
2022-08-26T09:04:27.401Z,1007.34
2022-08-26T09:05:27.401Z,1007.34
2022-08-26T09:06:27.626Z,1007.38
2022-08-26T09:07:27.377Z,1007.43
2022-08-26T09:08:27.358Z,1007.33
2022-08-26T09:09:27.374Z,1007.35
2022-08-26T09:10:27.455Z,1007.34
2022-08-26T09:11:27.361Z,1007.41
2022-08-26T09:12:29.848Z,1007.40
2022-08-26T09:13:27.553Z,1007.45
2022-08-26T09:14:27.328Z,1007.37
2022-08-26T09:15:30.214Z,1007.40
2022-08-26T09:16:27.369Z,1007.38
2022-08-26T09:17:27.262Z,1007.41
2022-08-26T09:18:27.270Z,1007.36
2022-08-26T09:19:27.253Z,1007.38
2022-08-26T09:20:27.270Z,1007.35
2022-08-26T09:21:27.226Z,1007.38
2022-08-26T09:22:28.015Z,1007.43
2022-08-26T09:23:27.214Z,1007.41
2022-08-26T09:24:28.333Z,1007.45
2022-08-26T09:25:27.218Z,1007.42
2022-08-26T09:26:29.566Z,1007.46
2022-08-26T09:27:27.147Z,1007.45
2022-08-26T09:28:27.163Z,1007.38
2022-08-26T09:29:27.130Z,1007.40
2022-08-26T09:30:27.188Z,1007.38
2022-08-26T09:31:27.203Z,1007.36
2022-08-26T09:32:27.097Z,1007.41
2022-08-26T09:33:27.100Z,1007.42
2022-08-26T09:34:27.102Z,1007.46
2022-08-26T09:35:27.068Z,1007.45
2022-08-26T09:36:27.045Z,1007.43
2022-08-26T09:37:27.932Z,1007.36
2022-08-26T09:38:28.017Z,1007.43
2022-08-26T09:39:27.113Z,1007.41
2022-08-26T09:40:27.472Z,1007.40
2022-08-26T09:41:27.002Z,1007.48
2022-08-26T09:42:26.979Z,1007.36
2022-08-26T09:43:27.224Z,1007.36
2022-08-26T09:44:27.012Z,1007.41
2022-08-26T09:45:26.967Z,1007.42
2022-08-26T09:46:27.064Z,1007.43
2022-08-26T09:47:26.982Z,1007.46
2022-08-26T09:48:26.946Z,1007.43
2022-08-26T09:49:26.958Z,1007.43
2022-08-26T09:50:28.983Z,1007.52
2022-08-26T09:51:26.883Z,1007.42
2022-08-26T09:52:26.961Z,1007.42
2022-08-26T09:53:30.272Z,1007.45
2022-08-26T09:54:30.429Z,1007.47
2022-08-26T09:55:27.855Z,1007.48
2022-08-26T09:56:27.568Z,1007.45
2022-08-26T09:57:26.832Z,1007.49
2022-08-26T09:58:26.829Z,1007.49
2022-08-26T09:59:27.439Z,1007.44
2022-08-26T10:00:26.839Z,1007.44
2022-08-26T10:01:26.855Z,1007.43
2022-08-26T10:02:27.478Z,1007.46
2022-08-26T10:03:26.775Z,1007.46
2022-08-26T10:04:26.985Z,1007.44
2022-08-26T10:05:26.718Z,1007.40
2022-08-26T10:06:26.731Z,1007.41
2022-08-26T10:07:26.744Z,1007.43
2022-08-26T10:08:26.699Z,1007.43
2022-08-26T10:09:26.689Z,1007.39
2022-08-26T10:10:26.737Z,1007.45
2022-08-26T10:11:26.677Z,1007.43
2022-08-26T10:12:26.736Z,1007.37
2022-08-26T10:13:26.730Z,1007.36
2022-08-26T10:14:26.662Z,1007.33
2022-08-26T10:15:26.682Z,1007.43
2022-08-26T10:16:28.391Z,1007.40
2022-08-26T10:17:26.622Z,1007.44
2022-08-26T10:18:28.796Z,1007.40
2022-08-26T10:19:29.115Z,1007.48
2022-08-26T10:20:27.575Z,1007.50
2022-08-26T10:21:26.604Z,1007.52
2022-08-26T10:22:26.578Z,1007.43
2022-08-26T10:23:26.548Z,1007.41
2022-08-26T10:24:26.527Z,1007.53
2022-08-26T10:25:26.515Z,1007.48
2022-08-26T10:26:26.570Z,1007.42
2022-08-26T10:27:26.498Z,1007.37
2022-08-26T10:28:26.481Z,1007.39
2022-08-26T10:29:26.470Z,1007.42
2022-08-26T10:30:26.479Z,1007.38
2022-08-26T10:31:27.695Z,1007.35
2022-08-26T10:32:26.497Z,1007.40
2022-08-26T10:33:26.430Z,1007.37
2022-08-26T10:34:26.408Z,1007.51
2022-08-26T10:35:26.404Z,1007.38
2022-08-26T10:36:26.414Z,1007.45
2022-08-26T10:37:26.380Z,1007.37
2022-08-26T10:38:26.356Z,1007.41
2022-08-26T10:39:26.421Z,1007.31
2022-08-26T10:40:26.494Z,1007.34
2022-08-26T10:41:26.366Z,1007.35
2022-08-26T10:42:26.318Z,1007.30
2022-08-26T10:43:26.308Z,1007.34
2022-08-26T10:44:26.307Z,1007.31
2022-08-26T10:45:26.313Z,1007.33
2022-08-26T10:46:27.172Z,1007.32
2022-08-26T10:47:26.263Z,1007.30
2022-08-26T10:48:26.250Z,1007.28
2022-08-26T10:49:27.238Z,1007.30
2022-08-26T10:50:26.253Z,1007.32
2022-08-26T10:51:26.219Z,1007.30
2022-08-26T10:52:29.422Z,1007.39
2022-08-26T10:53:26.516Z,1007.27
2022-08-26T10:54:26.200Z,1007.30
2022-08-26T10:55:26.939Z,1007.31
2022-08-26T10:56:26.155Z,1007.22
2022-08-26T10:57:26.151Z,1007.36
2022-08-26T10:58:27.534Z,1007.31
2022-08-26T10:59:26.132Z,1007.29
2022-08-26T11:00:27.549Z,1007.39
2022-08-26T11:01:26.155Z,1007.27
2022-08-26T11:02:26.090Z,1007.33
2022-08-26T11:03:26.095Z,1007.24
2022-08-26T11:04:26.220Z,1007.26
2022-08-26T11:05:26.128Z,1007.24
2022-08-26T11:06:26.059Z,1007.21
2022-08-26T11:07:26.052Z,1007.26
2022-08-26T11:08:26.050Z,1007.27
2022-08-26T11:09:26.462Z,1007.25
2022-08-26T11:10:26.003Z,1007.21
2022-08-26T11:11:26.021Z,1007.22
2022-08-26T11:12:25.988Z,1007.22
2022-08-26T11:13:25.977Z,1007.23
2022-08-26T11:14:29.212Z,1007.33
2022-08-26T11:15:25.973Z,1007.25
2022-08-26T11:16:25.973Z,1007.29
2022-08-26T11:17:25.957Z,1007.21
2022-08-26T11:18:25.925Z,1007.21
2022-08-26T11:19:26.368Z,1007.25
2022-08-26T11:20:25.898Z,1007.20
2022-08-26T11:21:25.950Z,1007.24
2022-08-26T11:22:25.894Z,1007.24
2022-08-26T11:23:25.885Z,1007.29
2022-08-26T11:24:26.472Z,1007.28
2022-08-26T11:25:30.010Z,1007.21
2022-08-26T11:26:35.926Z,1007.23
2022-08-26T11:27:26.822Z,1007.19
2022-08-26T11:28:25.827Z,1007.16
2022-08-26T11:29:25.797Z,1007.15
2022-08-26T11:30:25.800Z,1007.19
2022-08-26T11:31:25.882Z,1007.22
2022-08-26T11:32:25.768Z,1007.27
2022-08-26T11:33:25.768Z,1007.25
2022-08-26T11:34:25.977Z,1007.13
2022-08-26T11:35:25.722Z,1007.26
2022-08-26T11:36:25.714Z,1007.24
2022-08-26T11:37:25.723Z,1007.20
2022-08-26T11:38:25.714Z,1007.19
2022-08-26T11:39:25.690Z,1007.15
2022-08-26T11:40:25.752Z,1007.15
2022-08-26T11:41:25.655Z,1007.13
2022-08-26T11:42:27.627Z,1007.14
2022-08-26T11:43:25.645Z,1007.14
2022-08-26T11:44:25.626Z,1007.15
2022-08-26T11:45:25.676Z,1007.18
2022-08-26T11:46:25.629Z,1007.23
2022-08-26T11:47:25.612Z,1007.17
2022-08-26T11:48:25.976Z,1007.16
2022-08-26T11:49:25.565Z,1007.20
2022-08-26T11:50:25.556Z,1007.29
2022-08-26T11:51:25.565Z,1007.26
2022-08-26T11:52:25.542Z,1007.33
2022-08-26T11:53:25.566Z,1007.29
2022-08-26T11:54:35.110Z,1007.18
2022-08-26T11:55:26.497Z,1007.17
2022-08-26T11:56:25.509Z,1007.12
2022-08-26T11:57:25.507Z,1007.14
2022-08-26T11:58:25.484Z,1007.19
2022-08-26T11:59:25.508Z,1007.15
2022-08-26T12:00:25.481Z,1007.14
2022-08-26T12:01:25.449Z,1007.14
2022-08-26T12:02:25.469Z,1007.15
2022-08-26T12:03:25.552Z,1007.19
2022-08-26T12:04:25.468Z,1007.14
2022-08-26T12:05:25.476Z,1007.15
2022-08-26T12:07:25.444Z,1007.06
2022-08-26T12:08:27.800Z,1007.08
2022-08-26T12:09:25.341Z,1007.11
2022-08-26T12:10:25.363Z,1007.07
2022-08-26T12:11:25.331Z,1007.08
2022-08-26T12:12:25.355Z,1007.08
2022-08-26T12:13:26.258Z,1007.14
2022-08-26T12:14:25.487Z,1007.08
2022-08-26T12:15:25.306Z,1007.15
2022-08-26T12:16:25.346Z,1007.12
2022-08-26T12:17:25.259Z,1007.15
2022-08-26T12:18:29.271Z,1007.17
2022-08-26T12:19:25.286Z,1007.14
2022-08-26T12:20:25.238Z,1007.14
2022-08-26T12:21:25.226Z,1007.18
2022-08-26T12:22:25.213Z,1007.18
2022-08-26T12:23:25.199Z,1007.11
2022-08-26T12:24:25.209Z,1007.05
2022-08-26T12:25:25.180Z,1007.13
2022-08-26T12:26:25.173Z,1007.07
2022-08-26T12:27:25.194Z,1007.12
2022-08-26T12:28:25.135Z,1007.12
2022-08-26T12:29:26.799Z,1007.20
2022-08-26T12:30:26.006Z,1007.09
2022-08-26T12:31:25.181Z,1007.02
2022-08-26T12:32:25.087Z,1007.09
2022-08-26T12:33:25.107Z,1007.11
2022-08-26T12:34:25.087Z,1007.13
2022-08-26T12:35:25.081Z,1007.17
2022-08-26T12:36:25.077Z,1007.09
2022-08-26T12:37:25.035Z,1007.06
2022-08-26T12:38:25.020Z,1007.09
2022-08-26T12:39:25.028Z,1007.10
2022-08-26T12:40:25.117Z,1007.10
2022-08-26T12:41:24.995Z,1007.10
2022-08-26T12:42:25.010Z,1007.15
2022-08-26T12:43:24.986Z,1007.12
2022-08-26T12:44:24.963Z,1007.05
2022-08-26T12:45:25.065Z,1007.08
2022-08-26T12:46:24.938Z,1007.06
2022-08-26T12:47:42.388Z,1007.03
2022-08-26T12:48:25.912Z,1007.06
2022-08-26T12:49:24.951Z,1007.02
2022-08-26T12:50:24.890Z,1006.97
2022-08-26T12:51:24.883Z,1006.95
2022-08-26T12:52:24.915Z,1006.86
2022-08-26T12:53:24.876Z,1007.06
2022-08-26T12:54:24.855Z,1006.91
2022-08-26T12:55:24.845Z,1006.91
2022-08-26T12:56:24.847Z,1007.09
2022-08-26T12:57:24.840Z,1006.93
2022-08-26T12:58:24.851Z,1006.91
2022-08-26T12:59:24.820Z,1006.89
2022-08-26T13:00:26.245Z,1006.98
2022-08-26T13:01:24.872Z,1006.93
2022-08-26T13:02:24.828Z,1006.92
2022-08-26T13:03:24.754Z,1006.91
2022-08-26T13:04:24.768Z,1006.86
2022-08-26T13:05:24.736Z,1006.94
2022-08-26T13:06:24.765Z,1007.03
2022-08-26T13:07:24.740Z,1006.97
2022-08-26T13:08:24.704Z,1006.95
2022-08-26T13:09:24.699Z,1006.99
2022-08-26T13:10:27.971Z,1006.96
2022-08-26T13:11:25.659Z,1006.97
2022-08-26T13:12:24.658Z,1006.89
2022-08-26T13:13:24.641Z,1006.89
2022-08-26T13:14:24.874Z,1006.94
2022-08-26T13:15:24.629Z,1006.92
2022-08-26T13:16:24.706Z,1007.01
2022-08-26T13:17:24.596Z,1007.01
2022-08-26T13:18:24.597Z,1006.83
2022-08-26T13:19:24.588Z,1006.84
2022-08-26T13:20:24.599Z,1006.82
2022-08-26T13:21:24.582Z,1006.89
2022-08-26T13:22:24.553Z,1006.85
2022-08-26T13:23:24.531Z,1006.76
2022-08-26T13:24:24.566Z,1006.84
2022-08-26T13:25:24.532Z,1006.98
2022-08-26T13:26:24.525Z,1006.78
2022-08-26T13:27:24.503Z,1006.77
2022-08-26T13:28:24.479Z,1006.82
2022-08-26T13:29:24.479Z,1006.74
2022-08-26T13:30:24.503Z,1006.76
2022-08-26T13:31:26.962Z,1006.69
2022-08-26T13:32:27.252Z,1006.79
2022-08-26T13:33:24.434Z,1006.86
2022-08-26T13:34:24.408Z,1006.73
2022-08-26T13:35:24.442Z,1006.78
2022-08-26T13:36:24.416Z,1006.71
2022-08-26T13:37:34.762Z,1006.69
2022-08-26T13:38:33.592Z,1006.69
2022-08-26T13:39:25.362Z,1006.66
2022-08-26T13:40:24.419Z,1006.54
2022-08-26T13:41:29.614Z,1006.61
2022-08-26T13:42:25.341Z,1006.66
2022-08-26T13:43:24.323Z,1006.56
2022-08-26T13:44:24.334Z,1006.62
2022-08-26T13:45:24.322Z,1006.61
2022-08-26T13:46:24.439Z,1006.56
2022-08-26T13:47:24.271Z,1006.59
2022-08-26T13:48:24.264Z,1006.54
2022-08-26T13:49:24.277Z,1006.64
2022-08-26T13:50:24.235Z,1006.60
2022-08-26T13:51:24.230Z,1006.53
2022-08-26T13:52:27.248Z,1006.55
2022-08-26T13:53:25.222Z,1006.58
2022-08-26T13:54:24.230Z,1006.58
2022-08-26T13:55:24.195Z,1006.60
2022-08-26T13:56:24.205Z,1006.61
2022-08-26T13:57:24.173Z,1006.60
2022-08-26T13:58:25.454Z,1006.59
2022-08-26T13:59:24.157Z,1006.70
2022-08-26T14:00:24.160Z,1006.67
2022-08-26T14:01:24.176Z,1006.68
2022-08-26T14:02:24.114Z,1006.58
2022-08-26T14:03:24.189Z,1006.79
2022-08-26T14:04:27.286Z,1006.62
2022-08-26T14:05:24.075Z,1006.68
2022-08-26T14:06:24.060Z,1006.66
2022-08-26T14:07:24.980Z,1006.67
2022-08-26T14:08:24.057Z,1006.69
2022-08-26T14:09:24.045Z,1006.65
2022-08-26T14:10:24.011Z,1006.71
2022-08-26T14:11:24.013Z,1006.62
2022-08-26T14:12:24.985Z,1006.74
2022-08-26T14:13:24.041Z,1006.71
2022-08-26T14:14:23.986Z,1006.65
2022-08-26T14:15:23.953Z,1006.73
2022-08-26T14:16:24.035Z,1006.72
2022-08-26T14:17:23.964Z,1006.75
2022-08-26T14:18:23.945Z,1006.70
2022-08-26T14:19:24.301Z,1006.71
2022-08-26T14:20:23.933Z,1006.73
2022-08-26T14:21:23.883Z,1006.66
2022-08-26T14:22:23.912Z,1006.56
2022-08-26T14:23:24.132Z,1006.61
2022-08-26T14:24:23.881Z,1006.57
2022-08-26T14:25:23.846Z,1006.64
2022-08-26T14:26:29.164Z,1006.65
2022-08-26T14:27:24.815Z,1006.49
2022-08-26T14:28:23.828Z,1006.54
2022-08-26T14:29:23.810Z,1006.48
2022-08-26T14:30:23.792Z,1006.49
2022-08-26T14:31:23.908Z,1006.60
2022-08-26T14:32:24.501Z,1006.50
2022-08-26T14:33:23.790Z,1006.44
2022-08-26T14:34:23.741Z,1006.56
2022-08-26T14:35:23.737Z,1006.52
2022-08-26T14:36:23.750Z,1006.54
2022-08-26T14:37:23.738Z,1006.55
2022-08-26T14:38:23.723Z,1006.49
2022-08-26T14:39:23.691Z,1006.63
2022-08-26T14:40:23.700Z,1006.55
2022-08-26T14:41:23.690Z,1006.60
2022-08-26T14:42:23.704Z,1006.53
2022-08-26T14:43:23.644Z,1006.58
2022-08-26T14:44:23.634Z,1006.45
2022-08-26T14:45:23.623Z,1006.52
2022-08-26T14:46:23.680Z,1006.54
2022-08-26T14:47:23.616Z,1006.53
2022-08-26T14:48:23.599Z,1006.49
2022-08-26T14:49:23.574Z,1006.44
2022-08-26T14:50:23.609Z,1006.51
2022-08-26T14:51:23.573Z,1006.54
2022-08-26T14:52:23.559Z,1006.41
2022-08-26T14:53:23.530Z,1006.47
2022-08-26T14:54:23.535Z,1006.51
2022-08-26T14:55:23.540Z,1006.50
2022-08-26T14:56:23.532Z,1006.54
2022-08-26T14:57:23.520Z,1006.56
2022-08-26T14:58:23.474Z,1006.54
2022-08-26T14:59:23.465Z,1006.65
2022-08-26T15:00:23.481Z,1006.56
2022-08-26T15:01:23.556Z,1006.60
2022-08-26T15:02:33.824Z,1006.57
2022-08-26T15:03:24.429Z,1006.56
2022-08-26T15:04:23.417Z,1006.56
2022-08-26T15:05:23.430Z,1006.72
2022-08-26T15:06:23.394Z,1006.61
2022-08-26T15:07:23.392Z,1006.69
2022-08-26T15:08:23.370Z,1006.63
2022-08-26T15:09:23.386Z,1006.59
2022-08-26T15:10:23.361Z,1006.62
2022-08-26T15:11:23.363Z,1006.68
2022-08-26T15:12:23.320Z,1006.58
2022-08-26T15:13:23.313Z,1006.65
2022-08-26T15:14:23.331Z,1006.60
2022-08-26T15:15:23.307Z,1006.63
2022-08-26T15:16:23.344Z,1006.57
2022-08-26T15:17:23.263Z,1006.69
2022-08-26T15:18:23.261Z,1006.70
2022-08-26T15:19:23.274Z,1006.58
2022-08-26T15:20:23.328Z,1006.62
2022-08-26T15:21:23.245Z,1006.68
2022-08-26T15:22:23.220Z,1006.57
2022-08-26T15:23:23.195Z,1006.62
2022-08-26T15:24:23.214Z,1006.51
2022-08-26T15:25:23.179Z,1006.51
2022-08-26T15:26:23.173Z,1006.52
2022-08-26T15:27:23.160Z,1006.50
2022-08-26T15:28:23.192Z,1006.37
2022-08-26T15:29:23.152Z,1006.41
2022-08-26T15:30:23.125Z,1006.45
2022-08-26T15:31:23.151Z,1006.41
2022-08-26T15:32:23.106Z,1006.45
2022-08-26T15:33:23.131Z,1006.41
2022-08-26T15:34:23.106Z,1006.53
2022-08-26T15:35:23.097Z,1006.44
2022-08-26T15:36:23.061Z,1006.38
2022-08-26T15:37:23.039Z,1006.33
2022-08-26T15:38:23.036Z,1006.33
2022-08-26T15:39:23.040Z,1006.31
2022-08-26T15:40:23.107Z,1006.34
2022-08-26T15:41:23.005Z,1006.36
2022-08-26T15:42:22.990Z,1006.34
2022-08-26T15:43:28.931Z,1006.42
2022-08-26T15:44:23.994Z,1006.49
2022-08-26T15:45:25.831Z,1006.46
2022-08-26T15:46:23.003Z,1006.39
2022-08-26T15:47:22.940Z,1006.32
2022-08-26T15:48:22.969Z,1006.32
2022-08-26T15:49:22.921Z,1006.40
2022-08-26T15:50:22.909Z,1006.43
2022-08-26T15:51:22.888Z,1006.38
2022-08-26T15:52:22.881Z,1006.38
2022-08-26T15:53:22.878Z,1006.38
2022-08-26T15:54:22.887Z,1006.43
2022-08-26T15:55:22.841Z,1006.41
2022-08-26T15:56:22.830Z,1006.40
2022-08-26T15:57:22.823Z,1006.44
2022-08-26T15:58:22.830Z,1006.45
2022-08-26T15:59:22.807Z,1006.41
2022-08-26T16:00:22.798Z,1006.39
2022-08-26T16:01:27.155Z,1006.39
2022-08-26T16:02:22.801Z,1006.39
2022-08-26T16:03:22.791Z,1006.29
2022-08-26T16:04:22.753Z,1006.32
2022-08-26T16:05:22.751Z,1006.31
2022-08-26T16:06:22.725Z,1006.23
2022-08-26T16:07:22.741Z,1006.23
2022-08-26T16:08:22.713Z,1006.25
2022-08-26T16:09:24.136Z,1006.22
2022-08-26T16:10:22.667Z,1006.19
2022-08-26T16:11:22.670Z,1006.23
2022-08-26T16:12:22.646Z,1006.18
2022-08-26T16:13:22.655Z,1006.27
2022-08-26T16:14:23.041Z,1006.26
2022-08-26T16:15:22.610Z,1006.25
2022-08-26T16:16:22.706Z,1006.21
2022-08-26T16:17:22.616Z,1006.27
2022-08-26T16:18:23.567Z,1006.28
2022-08-26T16:19:22.572Z,1006.29
2022-08-26T16:20:22.554Z,1006.25
2022-08-26T16:21:22.554Z,1006.28
2022-08-26T16:22:22.564Z,1006.23
2022-08-26T16:23:22.559Z,1006.14
2022-08-26T16:24:26.004Z,1006.15
2022-08-26T16:25:23.510Z,1006.18
2022-08-26T16:26:22.536Z,1006.27
2022-08-26T16:27:23.038Z,1006.24
2022-08-26T16:28:25.978Z,1006.28
2022-08-26T16:29:22.465Z,1006.32
2022-08-26T16:30:22.462Z,1006.28
2022-08-26T16:31:22.613Z,1006.29
2022-08-26T16:32:22.433Z,1006.30
2022-08-26T16:33:29.088Z,1006.35
2022-08-26T16:34:24.057Z,1006.37
2022-08-26T16:35:22.405Z,1006.42
2022-08-26T16:36:22.415Z,1006.36
2022-08-26T16:37:22.386Z,1006.34
2022-08-26T16:38:22.375Z,1006.35
2022-08-26T16:39:22.348Z,1006.31
2022-08-26T16:40:22.455Z,1006.35
2022-08-26T16:41:22.373Z,1006.26
2022-08-26T16:42:22.338Z,1006.30
2022-08-26T16:43:22.312Z,1006.29
2022-08-26T16:44:22.333Z,1006.29
2022-08-26T16:45:22.282Z,1006.35
2022-08-26T16:46:22.409Z,1006.32
2022-08-26T16:47:22.269Z,1006.31
2022-08-26T16:48:22.274Z,1006.29
2022-08-26T16:49:22.242Z,1006.32
2022-08-26T16:50:22.269Z,1006.35
2022-08-26T16:51:22.245Z,1006.35
2022-08-26T16:52:22.204Z,1006.45
2022-08-26T16:53:22.208Z,1006.34
2022-08-26T16:54:22.238Z,1006.36
2022-08-26T16:55:22.186Z,1006.37
2022-08-26T16:56:22.182Z,1006.49
2022-08-26T16:57:22.165Z,1006.48
2022-08-26T16:58:22.483Z,1006.38
2022-08-26T16:59:22.152Z,1006.45
2022-08-26T17:00:22.121Z,1006.48
2022-08-26T17:01:22.190Z,1006.43
2022-08-26T17:02:22.188Z,1006.45
2022-08-26T17:03:22.090Z,1006.44
2022-08-26T17:04:22.114Z,1006.47
2022-08-26T17:05:22.077Z,1006.51
2022-08-26T17:06:22.058Z,1006.50
2022-08-26T17:07:22.044Z,1006.52
2022-08-26T17:08:28.875Z,1006.50
2022-08-26T17:09:23.030Z,1006.63
2022-08-26T17:10:22.012Z,1006.59
2022-08-26T17:11:21.999Z,1006.55
2022-08-26T17:12:21.985Z,1006.71
2022-08-26T17:13:34.870Z,1006.63
2022-08-26T17:14:22.958Z,1006.65
2022-08-26T17:15:21.966Z,1006.75
2022-08-26T17:16:26.465Z,1006.73
2022-08-26T17:17:22.938Z,1006.70
2022-08-26T17:18:21.924Z,1006.69
2022-08-26T17:19:21.914Z,1006.79
2022-08-26T17:20:21.904Z,1006.80
2022-08-26T17:21:21.914Z,1006.77
2022-08-26T17:22:21.874Z,1006.79
2022-08-26T17:23:21.878Z,1006.85
2022-08-26T17:24:21.866Z,1006.76
2022-08-26T17:25:21.841Z,1006.75
2022-08-26T17:26:21.865Z,1006.77
2022-08-26T17:27:21.831Z,1006.75
2022-08-26T17:28:21.821Z,1006.82
2022-08-26T17:29:21.820Z,1006.78
2022-08-26T17:30:21.804Z,1006.85
2022-08-26T17:31:21.995Z,1006.79
2022-08-26T17:32:21.775Z,1006.83
2022-08-26T17:33:22.062Z,1006.83
2022-08-26T17:34:21.759Z,1006.81
2022-08-26T17:35:21.739Z,1006.89
2022-08-26T17:36:21.731Z,1006.83
2022-08-26T17:37:21.728Z,1006.80
2022-08-26T17:38:21.707Z,1006.92
2022-08-26T17:39:21.715Z,1006.88
2022-08-26T17:40:21.817Z,1006.84
2022-08-26T17:41:21.675Z,1006.92
2022-08-26T17:42:21.712Z,1006.87
2022-08-26T17:43:22.653Z,1006.90
2022-08-26T17:44:21.643Z,1006.92
2022-08-26T17:45:21.646Z,1006.88
2022-08-26T17:46:21.720Z,1006.89
2022-08-26T17:47:21.616Z,1006.88
2022-08-26T17:48:21.612Z,1006.91
2022-08-26T17:49:21.600Z,1006.91
2022-08-26T17:50:21.579Z,1006.90
2022-08-26T17:51:21.560Z,1006.97
2022-08-26T17:52:21.553Z,1006.93
2022-08-26T17:53:21.577Z,1006.91
2022-08-26T17:54:21.528Z,1006.86
2022-08-26T17:55:21.514Z,1006.84
2022-08-26T17:56:21.517Z,1006.86
2022-08-26T17:57:21.524Z,1006.87
2022-08-26T17:58:23.374Z,1006.97
2022-08-26T17:59:21.493Z,1006.88
2022-08-26T18:00:21.462Z,1006.94
2022-08-26T18:01:21.518Z,1006.86
2022-08-26T18:02:21.566Z,1006.88
2022-08-26T18:03:21.456Z,1006.87
2022-08-26T18:04:21.488Z,1006.97
2022-08-26T18:05:21.409Z,1006.92
2022-08-26T18:06:21.405Z,1006.79
2022-08-26T18:07:21.434Z,1006.91
2022-08-26T18:08:21.380Z,1006.92
2022-08-26T18:09:21.373Z,1006.93
2022-08-26T18:10:21.376Z,1006.84
2022-08-26T18:11:21.346Z,1006.91
2022-08-26T18:12:21.340Z,1006.80
2022-08-26T18:13:21.333Z,1006.85
2022-08-26T18:14:21.314Z,1006.83
2022-08-26T18:15:21.310Z,1006.86
2022-08-26T18:16:21.283Z,1006.89
2022-08-26T18:17:21.285Z,1006.87
2022-08-26T18:18:21.278Z,1006.85
2022-08-26T18:19:21.262Z,1006.87
2022-08-26T18:20:21.298Z,1006.86
2022-08-26T18:21:21.276Z,1007.08
2022-08-26T18:22:21.239Z,1006.96
2022-08-26T18:23:21.221Z,1006.96
2022-08-26T18:24:21.203Z,1006.91
2022-08-26T18:25:21.196Z,1006.94
2022-08-26T18:26:21.199Z,1007.01
2022-08-26T18:27:21.180Z,1006.94
2022-08-26T18:28:21.176Z,1006.94
2022-08-26T18:29:21.158Z,1006.97
2022-08-26T18:30:21.130Z,1006.98
2022-08-26T18:31:21.203Z,1006.97
2022-08-26T18:32:21.113Z,1006.97
2022-08-26T18:33:21.103Z,1007.00
2022-08-26T18:34:21.119Z,1007.00
2022-08-26T18:35:21.107Z,1007.03
2022-08-26T18:36:21.073Z,1006.95
2022-08-26T18:37:21.055Z,1007.03
2022-08-26T18:38:21.077Z,1006.98
2022-08-26T18:39:22.186Z,1006.95
2022-08-26T18:40:21.189Z,1006.98
2022-08-26T18:41:21.027Z,1006.94
2022-08-26T18:42:20.999Z,1006.97
2022-08-26T18:43:20.986Z,1007.01
2022-08-26T18:44:21.012Z,1007.00
2022-08-26T18:45:20.987Z,1006.97
2022-08-26T18:46:21.085Z,1007.07
2022-08-26T18:47:20.960Z,1006.98
2022-08-26T18:48:20.963Z,1007.02
2022-08-26T18:49:20.972Z,1007.06
2022-08-26T18:50:20.947Z,1007.05
2022-08-26T18:51:20.904Z,1007.06
2022-08-26T18:52:20.894Z,1007.13
2022-08-26T18:53:20.887Z,1007.07
2022-08-26T18:55:20.873Z,1007.11
2022-08-26T18:56:20.871Z,1007.07
2022-08-26T18:57:20.843Z,1007.10
2022-08-26T18:58:20.834Z,1007.11
2022-08-26T18:59:29.486Z,1007.13
2022-08-26T19:00:21.827Z,1007.14
2022-08-26T19:01:24.301Z,1007.10
2022-08-26T19:02:22.069Z,1007.09
2022-08-26T19:03:20.770Z,1007.05
2022-08-26T19:04:20.755Z,1007.08
2022-08-26T19:05:20.757Z,1007.12
2022-08-26T19:06:20.730Z,1007.09
2022-08-26T19:07:20.796Z,1007.08
2022-08-26T19:08:20.717Z,1007.19
2022-08-26T19:09:20.924Z,1007.16
2022-08-26T19:10:20.707Z,1007.21
2022-08-26T19:11:31.853Z,1007.15
2022-08-26T19:12:21.674Z,1007.22
2022-08-26T19:13:20.665Z,1007.20
2022-08-26T19:14:20.649Z,1007.12
2022-08-26T19:15:20.640Z,1007.19
2022-08-26T19:16:20.676Z,1007.19
2022-08-26T19:17:22.554Z,1007.29
2022-08-26T19:18:20.633Z,1007.18
2022-08-26T19:19:20.609Z,1007.14
2022-08-26T19:20:20.587Z,1007.22
2022-08-26T19:21:20.578Z,1007.18
2022-08-26T19:22:20.553Z,1007.20
2022-08-26T19:23:31.537Z,1007.22
2022-08-26T19:24:21.583Z,1007.17
2022-08-26T19:25:20.537Z,1007.25
2022-08-26T19:26:20.519Z,1007.18
2022-08-26T19:27:20.529Z,1007.18
2022-08-26T19:28:20.570Z,1007.18
2022-08-26T19:29:20.508Z,1007.20
2022-08-26T19:30:20.476Z,1007.16
2022-08-26T19:31:20.513Z,1007.19
2022-08-26T19:32:20.442Z,1007.14
2022-08-26T19:33:20.437Z,1007.16
2022-08-26T19:34:21.005Z,1007.08
2022-08-26T19:35:20.423Z,1007.17
2022-08-26T19:36:20.484Z,1007.09
2022-08-26T19:37:20.461Z,1007.16
2022-08-26T19:38:20.375Z,1007.08
2022-08-26T19:39:20.366Z,1007.12
2022-08-26T19:40:20.477Z,1007.13
2022-08-26T19:41:20.366Z,1007.10
2022-08-26T19:42:20.350Z,1007.10
2022-08-26T19:43:20.335Z,1007.14
2022-08-26T19:44:20.323Z,1007.11
2022-08-26T19:45:25.007Z,1007.15
2022-08-26T19:46:21.421Z,1007.17
2022-08-26T19:47:20.295Z,1007.12
2022-08-26T19:48:20.276Z,1007.11
2022-08-26T19:49:20.269Z,1007.10
2022-08-26T19:50:20.277Z,1007.10
2022-08-26T19:51:20.238Z,1007.05
2022-08-26T19:52:20.244Z,1007.11
2022-08-26T19:53:20.235Z,1007.12
2022-08-26T19:54:20.225Z,1007.10
2022-08-26T19:55:20.198Z,1007.19
2022-08-26T19:56:20.183Z,1007.13
2022-08-26T19:57:20.173Z,1007.15
2022-08-26T19:58:20.160Z,1007.17
2022-08-26T19:59:20.157Z,1007.23
2022-08-26T20:00:20.149Z,1007.19
2022-08-26T20:01:20.163Z,1007.19
2022-08-26T20:02:20.190Z,1007.22
2022-08-26T20:03:20.113Z,1007.23
2022-08-26T20:04:20.127Z,1007.30
2022-08-26T20:05:20.086Z,1007.24
2022-08-26T20:06:20.153Z,1007.19
2022-08-26T20:07:20.070Z,1007.24
2022-08-26T20:08:22.602Z,1007.24
2022-08-26T20:09:20.048Z,1007.28
2022-08-26T20:10:20.063Z,1007.22
2022-08-26T20:11:20.058Z,1007.22
2022-08-26T20:12:20.005Z,1007.19
2022-08-26T20:13:19.993Z,1007.18
2022-08-26T20:14:22.969Z,1007.24
2022-08-26T20:15:19.988Z,1007.16
2022-08-26T20:16:20.012Z,1007.21
2022-08-26T20:17:19.956Z,1007.26
2022-08-26T20:18:19.927Z,1007.18
2022-08-26T20:19:19.940Z,1007.12
2022-08-26T20:20:32.647Z,1007.13
2022-08-26T20:21:20.902Z,1007.21
2022-08-26T20:22:19.889Z,1007.17
2022-08-26T20:23:19.884Z,1007.20
2022-08-26T20:24:19.881Z,1007.20
2022-08-26T20:25:19.857Z,1007.19
2022-08-26T20:26:19.840Z,1007.20
2022-08-26T20:27:19.831Z,1007.21
2022-08-26T20:28:19.817Z,1007.27
2022-08-26T20:29:19.822Z,1007.18
2022-08-26T20:30:19.809Z,1007.22
2022-08-26T20:31:19.875Z,1007.22
2022-08-26T20:32:19.888Z,1007.28
2022-08-26T20:33:19.775Z,1007.29
2022-08-26T20:34:19.774Z,1007.34
2022-08-26T20:35:19.749Z,1007.25
2022-08-26T20:36:19.736Z,1007.28
2022-08-26T20:37:20.373Z,1007.27
2022-08-26T20:38:21.605Z,1007.30
2022-08-26T20:39:19.705Z,1007.28
2022-08-26T20:40:19.760Z,1007.29
2022-08-26T20:41:19.682Z,1007.23
2022-08-26T20:42:20.582Z,1007.24
2022-08-26T20:43:19.656Z,1007.31
2022-08-26T20:44:19.646Z,1007.24
2022-08-26T20:45:19.632Z,1007.31
2022-08-26T20:46:24.087Z,1007.31
2022-08-26T20:47:20.608Z,1007.27
2022-08-26T20:48:19.594Z,1007.38
2022-08-26T20:49:19.622Z,1007.40
2022-08-26T20:50:19.580Z,1007.31
2022-08-26T20:51:19.565Z,1007.36
2022-08-26T20:52:19.550Z,1007.41
2022-08-26T20:53:19.538Z,1007.40
2022-08-26T20:54:19.562Z,1007.39
2022-08-26T20:55:19.536Z,1007.32
2022-08-26T20:56:19.503Z,1007.35
2022-08-26T20:57:19.500Z,1007.35
2022-08-26T20:58:19.487Z,1007.34
2022-08-26T20:59:19.476Z,1007.30
2022-08-26T21:00:19.474Z,1007.40
2022-08-26T21:01:19.561Z,1007.39
2022-08-26T21:02:19.449Z,1007.37
2022-08-26T21:03:19.427Z,1007.31
2022-08-26T21:04:19.422Z,1007.40
2022-08-26T21:05:19.489Z,1007.40
2022-08-26T21:06:19.402Z,1007.45
2022-08-26T21:07:19.402Z,1007.52